createdAt,value
2022-12-25T00:01:25.735Z,5.03
2022-12-25T00:03:53.986Z,6.37
2022-12-25T00:06:21.746Z,6.70
2022-12-25T00:08:49.287Z,6.30
2022-12-25T00:11:20.384Z,4.87
2022-12-25T00:13:48.511Z,5.03
2022-12-25T00:16:25.606Z,4.37
2022-12-25T00:18:56.067Z,4.37
2022-12-25T00:21:23.809Z,4.53
2022-12-25T00:23:57.672Z,4.43
2022-12-25T00:26:26.784Z,4.37
2022-12-25T00:28:59.094Z,4.30
2022-12-25T00:31:27.675Z,5.50
2022-12-25T00:33:56.039Z,5.83
2022-12-25T00:36:24.331Z,5.00
2022-12-25T00:38:52.010Z,5.53
2022-12-25T00:41:42.580Z,4.93
2022-12-25T00:44:14.197Z,5.00
2022-12-25T00:46:42.645Z,5.90
2022-12-25T00:49:11.770Z,5.60
2022-12-25T00:51:39.589Z,6.20
2022-12-25T00:54:07.753Z,6.60
2022-12-25T00:56:35.584Z,6.07
2022-12-25T00:59:03.443Z,6.10
2022-12-25T01:01:31.073Z,4.83
2022-12-25T01:03:59.288Z,5.73
2022-12-25T01:06:27.602Z,4.87
2022-12-25T01:09:13.452Z,7.10
2022-12-25T01:11:41.433Z,4.90
2022-12-25T01:14:09.787Z,4.50
2022-12-25T01:16:38.066Z,4.70
2022-12-25T01:19:05.947Z,7.27
2022-12-25T01:21:33.602Z,7.87
2022-12-25T01:24:01.278Z,7.67
2022-12-25T01:26:29.304Z,5.87
2022-12-25T01:28:57.127Z,5.70
2022-12-25T01:31:26.958Z,7.53
2022-12-25T01:33:54.633Z,5.90
2022-12-25T01:36:26.060Z,5.37
2022-12-25T01:38:54.777Z,6.33
2022-12-25T01:41:24.838Z,4.77
2022-12-25T01:44:35.133Z,6.83
2022-12-25T01:47:04.371Z,6.07
2022-12-25T01:49:35.428Z,5.63
2022-12-25T01:52:12.272Z,4.90
2022-12-25T01:54:49.160Z,5.73
2022-12-25T01:57:38.223Z,6.00
2022-12-25T02:00:12.765Z,5.23
2022-12-25T02:02:42.477Z,4.73
2022-12-25T02:05:32.609Z,4.00
2022-12-25T02:08:09.760Z,4.00
2022-12-25T02:10:39.251Z,4.03
2022-12-25T02:13:08.350Z,4.13
2022-12-25T02:15:53.589Z,5.13
2022-12-25T02:18:53.301Z,4.80
2022-12-25T02:21:58.001Z,5.00
2022-12-25T02:25:00.227Z,4.17
2022-12-25T02:28:11.550Z,4.40
2022-12-25T02:30:51.715Z,5.10
2022-12-25T02:34:06.434Z,4.47
2022-12-25T02:36:50.458Z,4.30
2022-12-25T02:39:58.988Z,4.60
2022-12-25T02:42:50.313Z,5.60
2022-12-25T02:46:12.140Z,4.60
2022-12-25T02:49:24.920Z,4.00
2022-12-25T02:52:35.932Z,4.37
2022-12-25T02:55:28.326Z,4.33
2022-12-25T02:58:23.151Z,4.33
2022-12-25T03:01:18.074Z,4.57
2022-12-25T03:04:09.750Z,4.37
2022-12-25T03:06:44.478Z,4.00
2022-12-25T03:09:40.328Z,4.40
2022-12-25T03:12:27.021Z,4.17
2022-12-25T03:15:14.101Z,4.20
2022-12-25T03:17:42.504Z,4.10
2022-12-25T03:20:29.541Z,4.10
2022-12-25T03:23:16.231Z,3.90
2022-12-25T03:26:02.805Z,4.17
2022-12-25T03:28:30.378Z,4.17
2022-12-25T03:31:26.562Z,4.87
2022-12-25T03:34:31.812Z,4.40
2022-12-25T03:37:17.284Z,4.90
2022-12-25T03:40:40.634Z,5.00
2022-12-25T03:43:36.549Z,5.33
2022-12-25T03:46:28.989Z,5.00
2022-12-25T03:49:45.426Z,4.77
2022-12-25T03:52:35.313Z,5.00
2022-12-25T03:55:28.506Z,4.80
2022-12-25T03:58:14.686Z,5.23
2022-12-25T04:01:01.008Z,4.67
2022-12-25T04:03:47.301Z,6.10
2022-12-25T04:06:33.543Z,5.53
2022-12-25T04:09:19.646Z,5.30
2022-12-25T04:12:05.878Z,5.70
2022-12-25T04:14:52.099Z,4.87
2022-12-25T04:17:37.969Z,4.90
2022-12-25T04:20:24.895Z,5.37
2022-12-25T04:23:11.073Z,5.60
2022-12-25T04:25:57.065Z,5.93
2022-12-25T04:28:43.076Z,6.63
2022-12-25T04:31:29.429Z,5.77
2022-12-25T04:34:15.753Z,5.60
2022-12-25T04:36:43.304Z,5.33
2022-12-25T04:39:11.575Z,6.50
2022-12-25T04:41:39.152Z,5.33
2022-12-25T04:44:06.592Z,5.37
2022-12-25T04:46:34.179Z,5.70
2022-12-25T04:49:01.712Z,5.83
2022-12-25T04:51:29.297Z,4.70
2022-12-25T04:53:57.058Z,6.00
2022-12-25T04:56:24.568Z,5.93
2022-12-25T04:58:52.121Z,5.40
2022-12-25T05:01:19.765Z,6.83
2022-12-25T05:03:47.537Z,11.57
2022-12-25T05:06:15.125Z,6.20
2022-12-25T05:08:45.595Z,6.20
2022-12-25T05:11:16.220Z,5.87
2022-12-25T05:13:44.326Z,5.20
2022-12-25T05:16:18.947Z,6.57
2022-12-25T05:18:49.801Z,6.17
2022-12-25T05:21:19.346Z,5.60
2022-12-25T05:23:51.444Z,5.77
2022-12-25T05:26:23.010Z,6.10
2022-12-25T05:28:51.259Z,9.57
2022-12-25T05:31:20.193Z,8.80
2022-12-25T05:33:51.764Z,5.70
2022-12-25T05:36:19.908Z,8.50
2022-12-25T05:38:47.623Z,6.47
2022-12-25T05:41:15.393Z,5.37
2022-12-25T05:43:42.854Z,6.70
2022-12-25T05:46:11.538Z,6.97
2022-12-25T05:48:39.486Z,7.27
2022-12-25T05:51:10.984Z,5.77
2022-12-25T05:53:39.214Z,6.07
2022-12-25T05:56:08.975Z,7.07
2022-12-25T05:58:39.243Z,9.73
2022-12-25T06:01:24.757Z,19.60
2022-12-25T06:03:53.875Z,18.67
2022-12-25T06:06:22.111Z,15.30
2022-12-25T06:08:50.674Z,9.00
2022-12-25T06:11:18.442Z,14.27
2022-12-25T06:13:51.732Z,21.07
2022-12-25T06:16:20.175Z,21.13
2022-12-25T06:18:52.213Z,13.90
2022-12-25T06:21:22.401Z,83.73
2022-12-25T06:23:50.208Z,44.57
2022-12-25T06:26:20.366Z,46.30
2022-12-25T06:28:48.701Z,18.87
2022-12-25T06:31:22.595Z,31.73
2022-12-25T06:33:50.594Z,22.40
2022-12-25T06:36:25.261Z,16.43
2022-12-25T06:38:53.950Z,27.20
2022-12-25T06:41:27.525Z,20.70
2022-12-25T06:43:58.464Z,9.60
2022-12-25T06:46:29.480Z,31.53
2022-12-25T06:48:58.842Z,24.93
2022-12-25T06:51:30.473Z,13.27
2022-12-25T06:53:59.473Z,12.40
2022-12-25T06:56:30.424Z,14.03
2022-12-25T06:59:06.451Z,18.70
2022-12-25T07:01:54.941Z,42.47
2022-12-25T07:04:42.264Z,34.23
2022-12-25T07:07:10.665Z,27.90
2022-12-25T07:09:39.370Z,14.20
2022-12-25T07:12:21.951Z,23.00
2022-12-25T07:14:50.195Z,12.03
2022-12-25T07:17:19.548Z,8.03
2022-12-25T07:19:48.450Z,10.67
2022-12-25T07:22:17.345Z,34.77
2022-12-25T07:24:44.916Z,19.30
2022-12-25T07:27:12.505Z,24.30
2022-12-25T07:29:40.062Z,17.83
2022-12-25T07:32:10.091Z,10.97
2022-12-25T07:34:37.704Z,20.23
2022-12-25T07:37:05.573Z,23.77
2022-12-25T07:39:35.343Z,22.57
2022-12-25T07:42:02.927Z,23.57
2022-12-25T07:44:30.457Z,21.03
2022-12-25T07:46:59.822Z,24.63
2022-12-25T07:49:27.335Z,31.03
2022-12-25T07:51:54.903Z,9.87
2022-12-25T07:54:22.664Z,10.47
2022-12-25T07:56:53.806Z,33.03
2022-12-25T07:59:21.767Z,7.77
2022-12-25T08:01:51.266Z,11.70
2022-12-25T08:04:19.439Z,10.47
2022-12-25T08:06:47.015Z,12.07
2022-12-25T08:09:16.086Z,10.37
2022-12-25T08:11:47.574Z,8.43
2022-12-25T08:14:15.929Z,9.17
2022-12-25T08:16:43.461Z,8.23
2022-12-25T08:19:12.294Z,11.07
2022-12-25T08:21:39.854Z,8.50
2022-12-25T08:24:08.104Z,8.33
2022-12-25T08:26:35.703Z,27.67
2022-12-25T08:29:03.555Z,17.13
2022-12-25T08:31:34.236Z,6.17
2022-12-25T08:34:04.455Z,8.73
2022-12-25T08:36:32.061Z,6.13
2022-12-25T08:39:02.930Z,6.83
2022-12-25T08:41:31.399Z,10.27
2022-12-25T08:43:59.004Z,10.50
2022-12-25T08:46:26.553Z,9.63
2022-12-25T08:48:54.598Z,7.83
2022-12-25T08:51:24.215Z,9.10
2022-12-25T08:53:53.633Z,6.90
2022-12-25T08:56:21.348Z,6.53
2022-12-25T08:58:48.848Z,9.17
2022-12-25T09:01:16.440Z,7.90
2022-12-25T09:03:44.216Z,6.90
2022-12-25T09:06:15.462Z,5.80
2022-12-25T09:08:48.567Z,6.20
2022-12-25T09:11:18.719Z,5.20
2022-12-25T09:13:46.335Z,7.80
2022-12-25T09:16:18.728Z,7.87
2022-12-25T09:18:46.643Z,5.60
2022-12-25T09:21:16.209Z,4.77
2022-12-25T09:23:44.398Z,5.57
2022-12-25T09:26:16.066Z,5.73
2022-12-25T09:28:50.574Z,6.23
2022-12-25T09:31:20.669Z,5.70
2022-12-25T09:33:48.836Z,4.60
2022-12-25T09:36:16.417Z,3.67
2022-12-25T09:38:44.191Z,4.80
2022-12-25T09:41:23.707Z,4.03
2022-12-25T09:44:16.344Z,4.00
2022-12-25T09:46:56.307Z,4.63
2022-12-25T09:49:57.157Z,3.17
2022-12-25T09:52:50.203Z,4.33
2022-12-25T09:55:22.576Z,4.03
2022-12-25T09:57:57.199Z,3.77
2022-12-25T10:00:42.536Z,3.27
2022-12-25T10:03:27.899Z,3.07
2022-12-25T10:06:14.108Z,3.83
2022-12-25T10:09:18.991Z,2.37
2022-12-25T10:12:27.338Z,4.47
2022-12-25T10:15:30.730Z,5.30
2022-12-25T10:18:35.273Z,6.63
2022-12-25T10:21:11.011Z,6.83
2022-12-25T10:24:03.328Z,8.27
2022-12-25T10:26:33.813Z,4.33
2022-12-25T10:29:22.966Z,4.83
2022-12-25T10:31:55.466Z,5.37
2022-12-25T10:34:27.767Z,6.13
2022-12-25T10:36:55.704Z,3.30
2022-12-25T10:39:25.818Z,4.17
2022-12-25T10:42:03.589Z,3.87
2022-12-25T10:44:32.370Z,3.20
2022-12-25T10:47:03.789Z,5.40
2022-12-25T10:49:38.513Z,3.53
2022-12-25T10:52:22.491Z,5.30
2022-12-25T10:54:50.182Z,4.97
2022-12-25T13:15:20.704Z,6.23
2022-12-25T13:17:50.194Z,2.80
2022-12-25T13:20:55.025Z,3.00
2022-12-25T13:23:35.002Z,4.77
2022-12-25T13:26:11.452Z,4.60
2022-12-25T13:28:39.233Z,6.10
2022-12-25T13:31:13.249Z,3.37
2022-12-25T13:34:05.229Z,5.13
2022-12-25T13:36:40.174Z,5.10
2022-12-25T13:39:17.264Z,5.07
2022-12-25T13:42:09.422Z,4.63
2022-12-25T13:44:48.878Z,8.23
2022-12-25T13:47:37.962Z,3.80
2022-12-25T13:50:33.343Z,4.23
2022-12-25T13:53:17.120Z,3.47
2022-12-25T13:55:54.891Z,4.40
2022-12-25T13:58:33.773Z,2.57
2022-12-25T14:01:03.655Z,3.80
2022-12-25T14:03:42.000Z,4.20
2022-12-25T14:06:24.289Z,3.57
2022-12-25T14:08:53.398Z,2.70
2022-12-25T14:11:26.255Z,2.80
2022-12-25T14:14:05.629Z,2.57
2022-12-25T14:16:34.346Z,8.70
2022-12-25T14:19:04.691Z,5.80
2022-12-25T14:21:41.043Z,6.77
2022-12-25T14:24:15.880Z,4.23
2022-12-25T14:26:44.016Z,4.70
2022-12-25T14:29:19.154Z,4.70
2022-12-25T14:31:49.292Z,5.27
2022-12-25T14:34:23.823Z,5.60
2022-12-25T14:36:53.889Z,7.27
2022-12-25T14:39:37.722Z,3.93
2022-12-25T14:42:24.562Z,4.90
2022-12-25T14:45:21.078Z,6.50
2022-12-25T14:47:54.975Z,10.67
2022-12-25T14:50:37.432Z,16.83
2022-12-25T14:53:17.229Z,14.43
2022-12-25T14:55:50.655Z,15.10
2022-12-25T14:58:31.260Z,10.07
2022-12-25T15:01:02.129Z,8.50
2022-12-25T15:03:36.554Z,11.77
2022-12-25T15:06:19.549Z,14.17
2022-12-25T15:09:12.961Z,10.17
2022-12-25T15:11:40.548Z,9.23
2022-12-25T15:14:08.041Z,9.30
2022-12-25T15:16:46.181Z,8.27
2022-12-25T15:19:41.049Z,10.07
2022-12-25T15:22:13.477Z,12.67
2022-12-25T15:24:41.001Z,9.10
2022-12-25T15:27:18.859Z,9.87
2022-12-25T15:30:08.990Z,8.50
2022-12-25T15:32:34.167Z,9.57
2022-12-25T15:35:01.681Z,8.47
2022-12-25T15:37:29.185Z,10.80
2022-12-25T15:39:57.463Z,16.77
2022-12-25T15:42:25.965Z,13.67
2022-12-25T15:44:53.506Z,14.73
2022-12-25T15:47:21.157Z,10.33
2022-12-25T15:49:49.073Z,7.10
2022-12-25T15:52:18.278Z,20.07
2022-12-25T15:54:45.863Z,40.60
2022-12-25T15:57:26.804Z,23.00
2022-12-25T15:59:57.267Z,34.07
2022-12-25T16:02:25.160Z,38.83
2022-12-25T16:04:55.366Z,37.83
2022-12-25T16:07:28.994Z,46.07
2022-12-25T16:10:22.802Z,66.50
2022-12-25T16:12:50.405Z,65.97
2022-12-25T16:15:21.101Z,54.07
2022-12-25T16:17:48.739Z,40.80
2022-12-25T16:20:16.321Z,46.57
2022-12-25T16:22:43.960Z,34.20
2022-12-25T16:25:17.254Z,25.00
2022-12-25T16:27:45.102Z,17.27
2022-12-25T16:30:17.539Z,20.57
2022-12-25T16:32:51.167Z,32.47
2022-12-25T16:35:20.158Z,26.27
2022-12-25T16:37:49.084Z,18.43
2022-12-25T16:40:19.633Z,7.50
2022-12-25T16:42:47.960Z,7.40
2022-12-25T16:45:15.822Z,6.67
2022-12-25T16:47:43.281Z,4.27
2022-12-25T16:50:11.223Z,3.63
2022-12-25T16:52:38.875Z,10.93
2022-12-25T16:55:07.195Z,6.80
2022-12-25T16:57:34.925Z,3.97
2022-12-25T17:00:04.247Z,11.77
2022-12-25T17:02:33.931Z,17.03
2022-12-25T17:05:01.997Z,12.93
2022-12-25T17:07:29.494Z,5.57
2022-12-25T17:10:07.619Z,11.50
2022-12-25T17:12:35.246Z,6.67
2022-12-25T17:15:02.918Z,9.97
2022-12-25T17:17:30.483Z,15.40
2022-12-25T17:19:58.538Z,29.90
2022-12-25T17:22:26.220Z,29.17
2022-12-25T17:24:54.888Z,24.17
2022-12-25T17:27:22.451Z,28.53
2022-12-25T17:29:50.129Z,35.07
2022-12-25T17:32:20.021Z,31.90
2022-12-25T17:34:48.988Z,31.20
2022-12-25T17:37:36.833Z,38.90
2022-12-25T17:40:07.620Z,42.53
2022-12-25T17:42:35.577Z,38.33
2022-12-25T17:45:04.536Z,39.23
2022-12-25T17:47:32.304Z,21.90
2022-12-25T17:50:00.292Z,34.90
2022-12-25T17:52:29.353Z,33.37
2022-12-25T17:54:56.874Z,25.83
2022-12-25T17:57:24.401Z,22.33
2022-12-25T17:59:51.873Z,18.83
2022-12-25T18:02:20.141Z,18.13
2022-12-25T18:04:48.270Z,19.87
2022-12-25T18:07:18.303Z,12.37
2022-12-25T18:09:46.115Z,11.50
2022-12-25T18:12:13.753Z,6.20
2022-12-25T18:14:41.338Z,4.80
2022-12-25T18:17:09.138Z,4.60
2022-12-25T18:19:36.638Z,6.07
2022-12-25T18:22:04.141Z,8.53
2022-12-25T18:24:31.659Z,4.07
2022-12-25T18:26:59.221Z,8.20
2022-12-25T18:29:27.368Z,5.00
2022-12-25T18:31:55.738Z,6.67
2022-12-25T18:34:23.446Z,4.73
2022-12-25T18:36:50.915Z,4.10
2022-12-25T18:39:19.598Z,3.40
2022-12-25T18:42:05.729Z,2.83
2022-12-25T18:44:33.251Z,5.00
2022-12-25T18:47:00.820Z,5.43
2022-12-25T18:49:28.348Z,11.40
2022-12-25T18:52:48.165Z,11.43
2022-12-25T18:54:43.678Z,13.70
2022-12-25T18:57:11.159Z,13.53
2022-12-25T18:59:38.762Z,7.97
2022-12-25T19:02:07.453Z,6.83
2022-12-25T19:04:36.695Z,11.17
2022-12-25T19:07:04.491Z,12.07
2022-12-25T19:09:33.995Z,12.90
2022-12-25T19:12:01.993Z,9.00
2022-12-25T19:14:47.751Z,9.03
2022-12-25T19:17:17.261Z,12.63
2022-12-25T19:19:45.344Z,11.30
2022-12-25T19:22:15.318Z,8.50
2022-12-25T19:24:45.190Z,11.77
2022-12-25T19:27:14.481Z,11.10
2022-12-25T19:29:44.168Z,7.30
2022-12-25T19:32:12.288Z,6.97
2022-12-25T19:34:42.397Z,8.27
2022-12-25T19:37:13.750Z,14.97
2022-12-25T19:39:46.883Z,13.73
2022-12-25T19:42:16.761Z,14.93
2022-12-25T19:44:44.672Z,25.50
2022-12-25T19:47:13.944Z,34.27
2022-12-25T19:49:43.941Z,24.00
2022-12-25T19:52:13.987Z,17.10
2022-12-25T19:54:42.358Z,27.00
2022-12-25T19:57:10.186Z,15.37
2022-12-25T19:59:39.462Z,7.50
2022-12-25T20:02:11.174Z,10.00
2022-12-25T20:04:39.705Z,11.57
2022-12-25T20:07:07.265Z,9.23
2022-12-25T20:09:36.173Z,9.50
2022-12-25T20:12:05.426Z,7.57
2022-12-25T20:14:33.158Z,8.50
2022-12-25T20:17:00.760Z,7.00
2022-12-25T20:19:28.410Z,6.13
2022-12-25T20:21:56.050Z,19.80
2022-12-25T20:24:24.747Z,20.87
2022-12-25T20:26:58.640Z,6.77
2022-12-25T20:29:27.885Z,6.30
2022-12-25T20:31:55.415Z,6.93
2022-12-25T20:34:23.275Z,10.03
2022-12-25T20:36:51.527Z,8.20
2022-12-25T20:39:19.308Z,7.20
2022-12-25T20:41:47.636Z,7.47
2022-12-25T20:44:15.383Z,8.00
2022-12-25T20:46:43.509Z,8.07
2022-12-25T20:49:13.526Z,9.63
2022-12-25T20:51:41.179Z,8.83
2022-12-25T20:54:12.779Z,8.70
2022-12-25T20:56:40.471Z,10.10
2022-12-25T20:59:09.271Z,8.20
2022-12-25T21:01:36.918Z,7.83
2022-12-25T21:04:04.685Z,7.77
2022-12-25T21:06:32.484Z,8.27
2022-12-25T21:09:00.306Z,7.80
2022-12-25T21:11:28.079Z,8.70
2022-12-25T21:13:55.705Z,8.03
2022-12-25T21:16:24.591Z,9.00
2022-12-25T21:18:53.971Z,10.00
2022-12-25T21:21:22.883Z,9.13
2022-12-25T21:23:51.279Z,7.80
2022-12-25T21:26:31.899Z,15.67
2022-12-25T21:29:03.263Z,10.80
2022-12-25T21:31:52.403Z,17.50
2022-12-25T21:34:19.899Z,23.13
2022-12-25T21:36:47.620Z,16.00
2022-12-25T21:39:16.083Z,9.70
2022-12-25T21:41:44.140Z,11.30
2022-12-25T21:44:12.596Z,9.93
2022-12-25T21:46:40.600Z,7.93
2022-12-25T21:49:10.946Z,8.17
2022-12-25T21:51:58.423Z,9.53
2022-12-25T21:54:25.957Z,9.63
2022-12-25T21:56:53.592Z,9.93
2022-12-25T21:59:22.872Z,26.63
2022-12-25T22:01:52.661Z,22.90
2022-12-25T22:04:23.389Z,19.93
2022-12-25T22:07:10.141Z,18.60
2022-12-25T22:09:38.220Z,15.60
2022-12-25T22:12:30.221Z,16.70
2022-12-25T22:15:03.999Z,12.40
2022-12-25T22:17:57.935Z,15.10
2022-12-25T22:20:38.231Z,19.50
2022-12-25T22:23:06.405Z,25.00
2022-12-25T22:25:33.933Z,22.80
2022-12-25T22:28:01.548Z,22.70
2022-12-25T22:30:30.300Z,21.67
2022-12-25T22:32:58.420Z,16.17
2022-12-25T22:35:26.062Z,14.73
2022-12-25T22:37:54.182Z,14.77
2022-12-25T22:40:22.516Z,12.30
2022-12-25T22:42:53.987Z,11.97
2022-12-25T22:45:21.507Z,11.97
2022-12-25T22:47:49.533Z,12.33
2022-12-25T22:50:17.097Z,12.87
2022-12-25T22:52:45.882Z,15.50
2022-12-25T22:55:18.904Z,12.67
2022-12-25T22:57:47.022Z,15.07
2022-12-25T23:00:14.806Z,18.23
2022-12-25T23:02:43.660Z,18.47
2022-12-25T23:05:11.294Z,21.97
2022-12-25T23:07:39.072Z,19.37
2022-12-25T23:10:07.780Z,14.60
2022-12-25T23:12:54.168Z,12.20
2022-12-25T23:15:22.023Z,12.53
2022-12-25T23:18:15.803Z,12.17
2022-12-25T23:21:01.732Z,11.13
2022-12-25T23:23:47.936Z,12.37
2022-12-25T23:26:17.990Z,14.10
2022-12-25T23:29:04.267Z,14.40
2022-12-25T23:31:36.777Z,9.93
2022-12-25T23:34:06.452Z,7.87
2022-12-25T23:36:34.884Z,5.97
2022-12-25T23:39:09.738Z,6.10
2022-12-25T23:41:41.510Z,6.13
2022-12-25T23:44:11.280Z,5.57
2022-12-25T23:46:39.386Z,6.40
2022-12-25T23:49:08.140Z,5.97
2022-12-25T23:51:38.041Z,6.43
2022-12-25T23:54:08.647Z,5.30
2022-12-25T23:56:36.702Z,3.27
2022-12-25T23:59:06.086Z,3.60
